sensor_id;sensor_type;location;lat;lon;timestamp;P1;durP1;ratioP1;P2;durP2;ratioP2
61527;SDS011;47395;42.032;-8.634;2023-08-21T00:00:10;8.90;;;3.90;;
61527;SDS011;47395;42.032;-8.634;2023-08-21T00:02:13;4.47;;;4.07;;
61527;SDS011;47395;42.032;-8.634;2023-08-21T00:04:14;7.70;;;3.60;;
61527;SDS011;47395;42.032;-8.634;2023-08-21T00:06:15;6.18;;;3.83;;
61527;SDS011;47395;42.032;-8.634;2023-08-21T00:08:15;13.57;;;3.65;;
61527;SDS011;47395;42.032;-8.634;2023-08-21T00:10:16;5.28;;;3.75;;
61527;SDS011;47395;42.032;-8.634;2023-08-21T00:12:17;6.32;;;3.63;;
61527;SDS011;47395;42.032;-8.634;2023-08-21T00:14:18;10.48;;;3.58;;
61527;SDS011;47395;42.032;-8.634;2023-08-21T00:16:19;5.03;;;3.65;;
61527;SDS011;47395;42.032;-8.634;2023-08-21T00:18:20;4.07;;;3.40;;
61527;SDS011;47395;42.032;-8.634;2023-08-21T00:20:21;9.88;;;4.28;;
61527;SDS011;47395;42.032;-8.634;2023-08-21T00:22:22;7.18;;;3.38;;
61527;SDS011;47395;42.032;-8.634;2023-08-21T00:24:23;6.45;;;3.35;;
61527;SDS011;47395;42.032;-8.634;2023-08-21T00:26:24;9.23;;;4.10;;
61527;SDS011;47395;42.032;-8.634;2023-08-21T00:28:25;9.50;;;3.45;;
61527;SDS011;47395;42.032;-8.634;2023-08-21T00:30:26;6.43;;;3.58;;
61527;SDS011;47395;42.032;-8.634;2023-08-21T00:32:27;4.32;;;3.25;;
61527;SDS011;47395;42.032;-8.634;2023-08-21T00:34:28;13.52;;;3.58;;
61527;SDS011;47395;42.032;-8.634;2023-08-21T00:36:29;6.75;;;3.53;;
61527;SDS011;47395;42.032;-8.634;2023-08-21T00:38:30;6.97;;;3.40;;
61527;SDS011;47395;42.032;-8.634;2023-08-21T00:40:33;6.15;;;3.65;;
61527;SDS011;47395;42.032;-8.634;2023-08-21T00:42:34;7.22;;;4.00;;
61527;SDS011;47395;42.032;-8.634;2023-08-21T00:44:36;7.05;;;3.70;;
61527;SDS011;47395;42.032;-8.634;2023-08-21T00:46:37;4.47;;;2.95;;
61527;SDS011;47395;42.032;-8.634;2023-08-21T00:48:37;5.28;;;3.63;;
61527;SDS011;47395;42.032;-8.634;2023-08-21T00:50:39;10.20;;;3.30;;
61527;SDS011;47395;42.032;-8.634;2023-08-21T00:52:43;6.38;;;3.60;;
61527;SDS011;47395;42.032;-8.634;2023-08-21T00:54:45;6.30;;;4.00;;
61527;SDS011;47395;42.032;-8.634;2023-08-21T00:56:46;7.95;;;3.78;;
61527;SDS011;47395;42.032;-8.634;2023-08-21T00:58:49;5.97;;;3.65;;
61527;SDS011;47395;42.032;-8.634;2023-08-21T01:00:50;8.10;;;3.90;;
61527;SDS011;47395;42.032;-8.634;2023-08-21T01:02:53;4.38;;;3.20;;
61527;SDS011;47395;42.032;-8.634;2023-08-21T01:04:54;4.40;;;3.85;;
61527;SDS011;47395;42.032;-8.634;2023-08-21T01:06:56;14.35;;;3.97;;
61527;SDS011;47395;42.032;-8.634;2023-08-21T01:09:02;9.18;;;3.88;;
61527;SDS011;47395;42.032;-8.634;2023-08-21T01:16:20;4.18;;;3.75;;
61527;SDS011;47395;42.032;-8.634;2023-08-21T01:18:22;3.25;;;3.00;;
61527;SDS011;47395;42.032;-8.634;2023-08-21T01:20:27;6.45;;;3.70;;
61527;SDS011;47395;42.032;-8.634;2023-08-21T01:22:38;6.28;;;3.53;;
61527;SDS011;47395;42.032;-8.634;2023-08-21T01:24:40;9.15;;;3.42;;
61527;SDS011;47395;42.032;-8.634;2023-08-21T01:26:42;6.78;;;4.10;;
61527;SDS011;47395;42.032;-8.634;2023-08-21T01:28:43;4.50;;;3.22;;
61527;SDS011;47395;42.032;-8.634;2023-08-21T01:30:44;9.20;;;4.22;;
61527;SDS011;47395;42.032;-8.634;2023-08-21T01:35:20;3.35;;;3.08;;
61527;SDS011;47395;42.032;-8.634;2023-08-21T01:37:22;3.88;;;3.30;;
61527;SDS011;47395;42.032;-8.634;2023-08-21T01:39:24;5.50;;;3.17;;
61527;SDS011;47395;42.032;-8.634;2023-08-21T01:41:26;3.55;;;3.25;;
61527;SDS011;47395;42.032;-8.634;2023-08-21T01:43:28;6.30;;;3.58;;
61527;SDS011;47395;42.032;-8.634;2023-08-21T01:45:30;6.88;;;3.40;;
61527;SDS011;47395;42.032;-8.634;2023-08-21T01:47:31;3.70;;;3.35;;
61527;SDS011;47395;42.032;-8.634;2023-08-21T01:49:32;6.18;;;3.42;;
61527;SDS011;47395;42.032;-8.634;2023-08-21T01:51:33;9.40;;;3.65;;
61527;SDS011;47395;42.032;-8.634;2023-08-21T01:53:36;7.03;;;3.80;;
61527;SDS011;47395;42.032;-8.634;2023-08-21T01:55:37;7.93;;;3.55;;
61527;SDS011;47395;42.032;-8.634;2023-08-21T01:57:38;7.97;;;3.70;;
61527;SDS011;47395;42.032;-8.634;2023-08-21T01:59:39;6.28;;;3.83;;
61527;SDS011;47395;42.032;-8.634;2023-08-21T02:01:40;4.43;;;3.58;;
61527;SDS011;47395;42.032;-8.634;2023-08-21T02:03:41;3.42;;;3.20;;
61527;SDS011;47395;42.032;-8.634;2023-08-21T02:05:42;6.38;;;3.65;;
61527;SDS011;47395;42.032;-8.634;2023-08-21T02:07:43;3.70;;;3.40;;
61527;SDS011;47395;42.032;-8.634;2023-08-21T02:09:44;10.45;;;3.38;;
61527;SDS011;47395;42.032;-8.634;2023-08-21T02:11:45;3.58;;;3.35;;
61527;SDS011;47395;42.032;-8.634;2023-08-21T02:13:47;4.20;;;3.80;;
61527;SDS011;47395;42.032;-8.634;2023-08-21T02:15:48;8.75;;;4.13;;
61527;SDS011;47395;42.032;-8.634;2023-08-21T02:17:49;4.47;;;3.60;;
61527;SDS011;47395;42.032;-8.634;2023-08-21T02:19:51;6.15;;;4.05;;
61527;SDS011;47395;42.032;-8.634;2023-08-21T02:21:52;4.35;;;3.60;;
61527;SDS011;47395;42.032;-8.634;2023-08-21T02:23:53;6.47;;;4.40;;
61527;SDS011;47395;42.032;-8.634;2023-08-21T02:25:56;5.28;;;3.97;;
61527;SDS011;47395;42.032;-8.634;2023-08-21T02:27:57;9.18;;;4.15;;
61527;SDS011;47395;42.032;-8.634;2023-08-21T02:29:58;7.63;;;4.03;;
61527;SDS011;47395;42.032;-8.634;2023-08-21T02:31:59;7.82;;;4.07;;
61527;SDS011;47395;42.032;-8.634;2023-08-21T02:34:00;6.32;;;4.38;;
61527;SDS011;47395;42.032;-8.634;2023-08-21T02:36:02;11.02;;;4.20;;
61527;SDS011;47395;42.032;-8.634;2023-08-21T02:38:04;11.00;;;4.38;;
61527;SDS011;47395;42.032;-8.634;2023-08-21T02:40:09;7.72;;;4.57;;
61527;SDS011;47395;42.032;-8.634;2023-08-21T02:42:10;6.55;;;4.57;;
61527;SDS011;47395;42.032;-8.634;2023-08-21T02:44:11;14.27;;;4.53;;
61527;SDS011;47395;42.032;-8.634;2023-08-21T02:46:12;8.52;;;4.38;;
61527;SDS011;47395;42.032;-8.634;2023-08-21T02:48:12;8.93;;;5.22;;
61527;SDS011;47395;42.032;-8.634;2023-08-21T02:50:14;6.93;;;4.22;;
61527;SDS011;47395;42.032;-8.634;2023-08-21T02:52:17;6.63;;;4.30;;
61527;SDS011;47395;42.032;-8.634;2023-08-21T02:54:18;6.85;;;4.68;;
61527;SDS011;47395;42.032;-8.634;2023-08-21T02:56:19;8.57;;;4.53;;
61527;SDS011;47395;42.032;-8.634;2023-08-21T02:58:21;9.32;;;4.00;;
61527;SDS011;47395;42.032;-8.634;2023-08-21T03:00:23;10.57;;;5.07;;
61527;SDS011;47395;42.032;-8.634;2023-08-21T03:02:24;9.88;;;4.78;;
61527;SDS011;47395;42.032;-8.634;2023-08-21T03:04:25;9.55;;;4.78;;
61527;SDS011;47395;42.032;-8.634;2023-08-21T03:06:25;8.13;;;4.45;;
61527;SDS011;47395;42.032;-8.634;2023-08-21T03:08:26;9.65;;;4.30;;
61527;SDS011;47395;42.032;-8.634;2023-08-21T03:10:27;4.03;;;3.70;;
61527;SDS011;47395;42.032;-8.634;2023-08-21T03:12:34;7.20;;;4.10;;
61527;SDS011;47395;42.032;-8.634;2023-08-21T03:14:36;4.40;;;3.97;;
61527;SDS011;47395;42.032;-8.634;2023-08-21T03:16:36;10.07;;;4.55;;
61527;SDS011;47395;42.032;-8.634;2023-08-21T03:18:53;8.43;;;4.25;;
61527;SDS011;47395;42.032;-8.634;2023-08-21T03:20:56;11.75;;;4.55;;
61527;SDS011;47395;42.032;-8.634;2023-08-21T03:22:57;5.53;;;4.53;;
61527;SDS011;47395;42.032;-8.634;2023-08-21T03:24:59;13.38;;;4.30;;
61527;SDS011;47395;42.032;-8.634;2023-08-21T03:27:01;5.60;;;4.20;;
61527;SDS011;47395;42.032;-8.634;2023-08-21T03:29:02;8.35;;;4.43;;
61527;SDS011;47395;42.032;-8.634;2023-08-21T03:31:03;4.75;;;4.30;;
61527;SDS011;47395;42.032;-8.634;2023-08-21T03:33:05;11.73;;;3.95;;
61527;SDS011;47395;42.032;-8.634;2023-08-21T03:35:07;7.32;;;3.97;;
61527;SDS011;47395;42.032;-8.634;2023-08-21T03:37:09;3.83;;;3.45;;
61527;SDS011;47395;42.032;-8.634;2023-08-21T03:39:10;6.38;;;3.67;;
61527;SDS011;47395;42.032;-8.634;2023-08-21T03:41:17;5.32;;;3.47;;
61527;SDS011;47395;42.032;-8.634;2023-08-21T03:43:17;5.57;;;3.70;;
61527;SDS011;47395;42.032;-8.634;2023-08-21T03:45:18;4.25;;;3.63;;
61527;SDS011;47395;42.032;-8.634;2023-08-21T03:47:19;11.15;;;3.40;;
61527;SDS011;47395;42.032;-8.634;2023-08-21T03:49:27;5.00;;;3.58;;
61527;SDS011;47395;42.032;-8.634;2023-08-21T03:51:28;7.13;;;3.85;;
61527;SDS011;47395;42.032;-8.634;2023-08-21T03:53:30;6.47;;;3.30;;
61527;SDS011;47395;42.032;-8.634;2023-08-21T03:55:31;5.63;;;3.88;;
61527;SDS011;47395;42.032;-8.634;2023-08-21T03:57:32;5.32;;;3.38;;
61527;SDS011;47395;42.032;-8.634;2023-08-21T03:59:34;5.15;;;3.42;;
61527;SDS011;47395;42.032;-8.634;2023-08-21T04:06:01;5.60;;;3.53;;
61527;SDS011;47395;42.032;-8.634;2023-08-21T04:08:02;3.47;;;3.17;;
61527;SDS011;47395;42.032;-8.634;2023-08-21T04:10:03;5.43;;;3.63;;
61527;SDS011;47395;42.032;-8.634;2023-08-21T04:12:05;6.70;;;4.03;;
61527;SDS011;47395;42.032;-8.634;2023-08-21T04:14:06;5.88;;;3.35;;
61527;SDS011;47395;42.032;-8.634;2023-08-21T04:16:06;4.15;;;3.78;;
61527;SDS011;47395;42.032;-8.634;2023-08-21T04:18:08;3.58;;;3.28;;
61527;SDS011;47395;42.032;-8.634;2023-08-21T04:20:10;3.58;;;3.15;;
61527;SDS011;47395;42.032;-8.634;2023-08-21T04:22:12;3.83;;;3.53;;
61527;SDS011;47395;42.032;-8.634;2023-08-21T04:24:14;5.00;;;3.10;;
61527;SDS011;47395;42.032;-8.634;2023-08-21T04:26:14;5.38;;;3.70;;
61527;SDS011;47395;42.032;-8.634;2023-08-21T04:28:15;3.35;;;3.15;;
61527;SDS011;47395;42.032;-8.634;2023-08-21T04:30:16;5.93;;;3.40;;
61527;SDS011;47395;42.032;-8.634;2023-08-21T04:32:17;5.38;;;3.28;;
61527;SDS011;47395;42.032;-8.634;2023-08-21T04:34:19;4.55;;;3.30;;
61527;SDS011;47395;42.032;-8.634;2023-08-21T04:36:20;4.72;;;2.97;;
61527;SDS011;47395;42.032;-8.634;2023-08-21T04:38:23;5.40;;;3.22;;
61527;SDS011;47395;42.032;-8.634;2023-08-21T04:40:24;5.30;;;3.40;;
61527;SDS011;47395;42.032;-8.634;2023-08-21T04:42:26;3.60;;;3.25;;
61527;SDS011;47395;42.032;-8.634;2023-08-21T04:44:27;5.10;;;3.25;;
61527;SDS011;47395;42.032;-8.634;2023-08-21T04:46:32;4.18;;;2.90;;
61527;SDS011;47395;42.032;-8.634;2023-08-21T04:48:33;3.42;;;3.22;;
61527;SDS011;47395;42.032;-8.634;2023-08-21T04:50:35;4.40;;;2.78;;
61527;SDS011;47395;42.032;-8.634;2023-08-21T04:52:36;3.20;;;3.00;;
61527;SDS011;47395;42.032;-8.634;2023-08-21T04:54:37;3.35;;;2.75;;
61527;SDS011;47395;42.032;-8.634;2023-08-21T04:56:39;3.30;;;3.00;;
61527;SDS011;47395;42.032;-8.634;2023-08-21T04:58:43;6.85;;;2.60;;
61527;SDS011;47395;42.032;-8.634;2023-08-21T05:00:44;3.13;;;2.83;;
61527;SDS011;47395;42.032;-8.634;2023-08-21T05:02:46;5.15;;;2.70;;
61527;SDS011;47395;42.032;-8.634;2023-08-21T05:04:47;3.10;;;2.45;;
61527;SDS011;47395;42.032;-8.634;2023-08-21T05:06:48;2.58;;;2.40;;
61527;SDS011;47395;42.032;-8.634;2023-08-21T05:08:50;5.18;;;2.30;;
61527;SDS011;47395;42.032;-8.634;2023-08-21T05:10:57;2.10;;;2.00;;
61527;SDS011;47395;42.032;-8.634;2023-08-21T05:13:01;2.70;;;2.20;;
61527;SDS011;47395;42.032;-8.634;2023-08-21T05:15:04;2.53;;;2.42;;
61527;SDS011;47395;42.032;-8.634;2023-08-21T05:17:06;3.35;;;2.50;;
61527;SDS011;47395;42.032;-8.634;2023-08-21T05:19:07;2.30;;;2.20;;
61527;SDS011;47395;42.032;-8.634;2023-08-21T05:21:08;2.20;;;2.10;;
61527;SDS011;47395;42.032;-8.634;2023-08-21T05:23:10;2.10;;;2.10;;
61527;SDS011;47395;42.032;-8.634;2023-08-21T05:25:12;9.45;;;2.40;;
61527;SDS011;47395;42.032;-8.634;2023-08-21T05:27:14;2.10;;;2.10;;
61527;SDS011;47395;42.032;-8.634;2023-08-21T05:29:15;2.50;;;2.40;;
61527;SDS011;47395;42.032;-8.634;2023-08-21T05:31:15;3.40;;;2.72;;
61527;SDS011;47395;42.032;-8.634;2023-08-21T05:33:23;2.45;;;2.30;;
61527;SDS011;47395;42.032;-8.634;2023-08-21T05:35:25;3.55;;;2.10;;
61527;SDS011;47395;42.032;-8.634;2023-08-21T05:37:26;2.33;;;2.13;;
61527;SDS011;47395;42.032;-8.634;2023-08-21T05:39:28;3.75;;;2.35;;
61527;SDS011;47395;42.032;-8.634;2023-08-21T05:41:29;2.10;;;2.00;;
61527;SDS011;47395;42.032;-8.634;2023-08-21T05:43:30;6.63;;;2.30;;
61527;SDS011;47395;42.032;-8.634;2023-08-21T05:45:31;2.38;;;2.17;;
61527;SDS011;47395;42.032;-8.634;2023-08-21T05:47:33;2.58;;;2.30;;
61527;SDS011;47395;42.032;-8.634;2023-08-21T05:49:34;7.10;;;2.67;;
61527;SDS011;47395;42.032;-8.634;2023-08-21T05:51:35;2.20;;;2.10;;
61527;SDS011;47395;42.032;-8.634;2023-08-21T05:53:36;5.55;;;2.58;;
61527;SDS011;47395;42.032;-8.634;2023-08-21T05:55:37;3.50;;;3.25;;
61527;SDS011;47395;42.032;-8.634;2023-08-21T05:57:38;6.35;;;3.00;;
61527;SDS011;47395;42.032;-8.634;2023-08-21T05:59:43;4.07;;;3.50;;
61527;SDS011;47395;42.032;-8.634;2023-08-21T06:01:45;3.55;;;3.28;;
61527;SDS011;47395;42.032;-8.634;2023-08-21T06:03:47;4.18;;;3.80;;
61527;SDS011;47395;42.032;-8.634;2023-08-21T06:05:53;4.20;;;3.60;;
61527;SDS011;47395;42.032;-8.634;2023-08-21T06:07:55;4.50;;;4.10;;
61527;SDS011;47395;42.032;-8.634;2023-08-21T06:09:56;6.90;;;3.38;;
61527;SDS011;47395;42.032;-8.634;2023-08-21T06:11:56;3.92;;;3.45;;
61527;SDS011;47395;42.032;-8.634;2023-08-21T06:13:57;3.90;;;3.60;;
61527;SDS011;47395;42.032;-8.634;2023-08-21T06:15:58;6.45;;;3.58;;
61527;SDS011;47395;42.032;-8.634;2023-08-21T06:18:00;3.30;;;3.00;;
61527;SDS011;47395;42.032;-8.634;2023-08-21T06:20:03;2.78;;;2.60;;
61527;SDS011;47395;42.032;-8.634;2023-08-21T06:22:11;2.33;;;2.22;;
61527;SDS011;47395;42.032;-8.634;2023-08-21T06:24:14;2.05;;;1.92;;
61527;SDS011;47395;42.032;-8.634;2023-08-21T06:26:15;3.00;;;2.03;;
61527;SDS011;47395;42.032;-8.634;2023-08-21T06:28:16;3.38;;;1.80;;
61527;SDS011;47395;42.032;-8.634;2023-08-21T06:30:17;2.60;;;1.75;;
61527;SDS011;47395;42.032;-8.634;2023-08-21T06:32:19;1.85;;;1.75;;
61527;SDS011;47395;42.032;-8.634;2023-08-21T06:34:20;2.05;;;1.92;;
61527;SDS011;47395;42.032;-8.634;2023-08-21T06:36:21;1.42;;;1.33;;
61527;SDS011;47395;42.032;-8.634;2023-08-21T06:38:22;1.38;;;1.35;;
61527;SDS011;47395;42.032;-8.634;2023-08-21T06:40:23;4.80;;;1.73;;
61527;SDS011;47395;42.032;-8.634;2023-08-21T06:42:24;1.30;;;1.30;;
61527;SDS011;47395;42.032;-8.634;2023-08-21T06:44:25;2.20;;;1.60;;
61527;SDS011;47395;42.032;-8.634;2023-08-21T06:46:28;1.95;;;1.60;;
61527;SDS011;47395;42.032;-8.634;2023-08-21T06:48:30;4.55;;;1.80;;
61527;SDS011;47395;42.032;-8.634;2023-08-21T06:50:34;1.95;;;1.85;;
61527;SDS011;47395;42.032;-8.634;2023-08-21T06:52:40;3.50;;;1.98;;
61527;SDS011;47395;42.032;-8.634;2023-08-21T06:54:40;2.72;;;2.00;;
61527;SDS011;47395;42.032;-8.634;2023-08-21T06:56:41;5.82;;;2.28;;
61527;SDS011;47395;42.032;-8.634;2023-08-21T06:58:42;6.95;;;2.13;;
61527;SDS011;47395;42.032;-8.634;2023-08-21T07:00:43;4.88;;;2.25;;
61527;SDS011;47395;42.032;-8.634;2023-08-21T07:02:44;2.35;;;2.08;;
61527;SDS011;47395;42.032;-8.634;2023-08-21T07:04:44;2.63;;;2.00;;
61527;SDS011;47395;42.032;-8.634;2023-08-21T07:06:45;3.92;;;1.90;;
61527;SDS011;47395;42.032;-8.634;2023-08-21T07:08:46;3.90;;;1.90;;
61527;SDS011;47395;42.032;-8.634;2023-08-21T07:10:47;3.38;;;1.90;;
61527;SDS011;47395;42.032;-8.634;2023-08-21T07:12:48;3.88;;;2.15;;
61527;SDS011;47395;42.032;-8.634;2023-08-21T07:14:49;2.10;;;2.00;;
61527;SDS011;47395;42.032;-8.634;2023-08-21T07:16:50;2.03;;;1.92;;
61527;SDS011;47395;42.032;-8.634;2023-08-21T07:18:50;3.05;;;1.90;;
61527;SDS011;47395;42.032;-8.634;2023-08-21T07:20:52;2.65;;;2.00;;
61527;SDS011;47395;42.032;-8.634;2023-08-21T07:22:53;1.60;;;1.50;;
61527;SDS011;47395;42.032;-8.634;2023-08-21T07:24:55;1.63;;;1.52;;
61527;SDS011;47395;42.032;-8.634;2023-08-21T07:26:56;4.57;;;1.60;;
61527;SDS011;47395;42.032;-8.634;2023-08-21T07:28:57;2.75;;;1.40;;
61527;SDS011;47395;42.032;-8.634;2023-08-21T07:30:58;3.58;;;2.20;;
61527;SDS011;47395;42.032;-8.634;2023-08-21T07:33:00;2.58;;;1.50;;
61527;SDS011;47395;42.032;-8.634;2023-08-21T07:35:01;3.47;;;1.08;;
61527;SDS011;47395;42.032;-8.634;2023-08-21T07:37:02;3.67;;;1.60;;
61527;SDS011;47395;42.032;-8.634;2023-08-21T07:39:03;3.13;;;2.00;;
61527;SDS011;47395;42.032;-8.634;2023-08-21T07:41:04;4.20;;;1.70;;
61527;SDS011;47395;42.032;-8.634;2023-08-21T07:43:07;2.85;;;1.52;;
61527;SDS011;47395;42.032;-8.634;2023-08-21T07:45:10;1.83;;;1.58;;
61527;SDS011;47395;42.032;-8.634;2023-08-21T07:47:11;2.90;;;1.55;;
61527;SDS011;47395;42.032;-8.634;2023-08-21T07:49:12;1.85;;;1.40;;
61527;SDS011;47395;42.032;-8.634;2023-08-21T07:51:13;2.53;;;1.50;;
61527;SDS011;47395;42.032;-8.634;2023-08-21T07:53:15;1.20;;;1.10;;
61527;SDS011;47395;42.032;-8.634;2023-08-21T07:55:16;1.85;;;1.25;;
61527;SDS011;47395;42.032;-8.634;2023-08-21T07:57:18;1.50;;;1.40;;
61527;SDS011;47395;42.032;-8.634;2023-08-21T07:59:19;2.47;;;1.58;;
61527;SDS011;47395;42.032;-8.634;2023-08-21T08:01:20;1.48;;;1.48;;
61527;SDS011;47395;42.032;-8.634;2023-08-21T08:03:21;3.83;;;1.35;;
61527;SDS011;47395;42.032;-8.634;2023-08-21T08:05:22;1.80;;;1.70;;
61527;SDS011;47395;42.032;-8.634;2023-08-21T08:07:23;1.58;;;1.40;;
61527;SDS011;47395;42.032;-8.634;2023-08-21T08:09:23;1.45;;;1.35;;
61527;SDS011;47395;42.032;-8.634;2023-08-21T08:11:24;1.63;;;1.50;;
61527;SDS011;47395;42.032;-8.634;2023-08-21T08:13:25;1.48;;;1.35;;
61527;SDS011;47395;42.032;-8.634;2023-08-21T08:15:26;1.98;;;1.70;;
61527;SDS011;47395;42.032;-8.634;2023-08-21T08:17:28;3.78;;;1.52;;
61527;SDS011;47395;42.032;-8.634;2023-08-21T08:19:29;3.90;;;1.58;;
61527;SDS011;47395;42.032;-8.634;2023-08-21T08:21:30;2.92;;;1.48;;
61527;SDS011;47395;42.032;-8.634;2023-08-21T08:23:31;1.85;;;1.30;;
61527;SDS011;47395;42.032;-8.634;2023-08-21T08:25:33;2.13;;;1.60;;
61527;SDS011;47395;42.032;-8.634;2023-08-21T08:27:34;1.60;;;1.50;;
61527;SDS011;47395;42.032;-8.634;2023-08-21T08:29:35;1.58;;;1.48;;
61527;SDS011;47395;42.032;-8.634;2023-08-21T08:31:36;1.67;;;1.40;;
61527;SDS011;47395;42.032;-8.634;2023-08-21T08:33:39;1.58;;;1.48;;
61527;SDS011;47395;42.032;-8.634;2023-08-21T08:35:40;6.07;;;1.27;;
61527;SDS011;47395;42.032;-8.634;2023-08-21T08:37:41;2.17;;;1.27;;
61527;SDS011;47395;42.032;-8.634;2023-08-21T08:39:42;2.40;;;1.30;;
61527;SDS011;47395;42.032;-8.634;2023-08-21T08:41:46;1.27;;;1.27;;
61527;SDS011;47395;42.032;-8.634;2023-08-21T08:43:51;1.35;;;1.25;;
61527;SDS011;47395;42.032;-8.634;2023-08-21T08:45:57;1.42;;;1.33;;
61527;SDS011;47395;42.032;-8.634;2023-08-21T08:47:59;1.27;;;1.00;;
61527;SDS011;47395;42.032;-8.634;2023-08-21T08:50:03;0.80;;;0.80;;
61527;SDS011;47395;42.032;-8.634;2023-08-21T08:52:06;2.88;;;1.00;;
61527;SDS011;47395;42.032;-8.634;2023-08-21T08:54:07;0.90;;;0.90;;
61527;SDS011;47395;42.032;-8.634;2023-08-21T08:56:09;1.10;;;1.10;;
61527;SDS011;47395;42.032;-8.634;2023-08-21T08:58:10;2.75;;;1.00;;
61527;SDS011;47395;42.032;-8.634;2023-08-21T09:00:11;0.90;;;0.90;;
61527;SDS011;47395;42.032;-8.634;2023-08-21T09:02:13;0.98;;;0.88;;
61527;SDS011;47395;42.032;-8.634;2023-08-21T09:04:14;0.82;;;0.80;;
61527;SDS011;47395;42.032;-8.634;2023-08-21T09:06:17;1.70;;;1.02;;
61527;SDS011;47395;42.032;-8.634;2023-08-21T09:08:17;0.90;;;0.90;;
61527;SDS011;47395;42.032;-8.634;2023-08-21T09:10:18;0.90;;;0.90;;
61527;SDS011;47395;42.032;-8.634;2023-08-21T09:12:20;2.92;;;1.15;;
61527;SDS011;47395;42.032;-8.634;2023-08-21T09:14:29;0.90;;;0.90;;
61527;SDS011;47395;42.032;-8.634;2023-08-21T09:16:31;9.30;;;1.10;;
61527;SDS011;47395;42.032;-8.634;2023-08-21T09:18:33;0.80;;;0.80;;
61527;SDS011;47395;42.032;-8.634;2023-08-21T09:20:35;1.50;;;1.10;;
61527;SDS011;47395;42.032;-8.634;2023-08-21T09:22:37;0.82;;;0.82;;
61527;SDS011;47395;42.032;-8.634;2023-08-21T09:24:39;1.75;;;0.93;;
61527;SDS011;47395;42.032;-8.634;2023-08-21T09:26:40;0.98;;;0.98;;
61527;SDS011;47395;42.032;-8.634;2023-08-21T09:28:41;0.93;;;0.90;;
61527;SDS011;47395;42.032;-8.634;2023-08-21T09:30:45;0.93;;;0.82;;
61527;SDS011;47395;42.032;-8.634;2023-08-21T09:32:58;1.23;;;0.95;;
61527;SDS011;47395;42.032;-8.634;2023-08-21T09:35:05;2.20;;;1.10;;
61527;SDS011;47395;42.032;-8.634;2023-08-21T09:37:07;2.78;;;1.00;;
61527;SDS011;47395;42.032;-8.634;2023-08-21T09:39:15;0.93;;;0.93;;
61527;SDS011;47395;42.032;-8.634;2023-08-21T09:41:20;3.40;;;0.82;;
61527;SDS011;47395;42.032;-8.634;2023-08-21T09:43:22;0.90;;;0.90;;
61527;SDS011;47395;42.032;-8.634;2023-08-21T09:45:24;0.82;;;0.80;;
61527;SDS011;47395;42.032;-8.634;2023-08-21T09:47:26;1.20;;;1.00;;
61527;SDS011;47395;42.032;-8.634;2023-08-21T09:49:28;1.35;;;0.80;;
61527;SDS011;47395;42.032;-8.634;2023-08-21T09:51:29;1.08;;;1.08;;
61527;SDS011;47395;42.032;-8.634;2023-08-21T09:53:31;1.20;;;1.10;;
61527;SDS011;47395;42.032;-8.634;2023-08-21T09:55:33;0.90;;;0.90;;
61527;SDS011;47395;42.032;-8.634;2023-08-21T09:57:33;1.08;;;1.08;;
61527;SDS011;47395;42.032;-8.634;2023-08-21T09:59:35;1.05;;;1.05;;
61527;SDS011;47395;42.032;-8.634;2023-08-21T10:01:40;0.93;;;0.93;;
61527;SDS011;47395;42.032;-8.634;2023-08-21T10:03:42;1.08;;;0.90;;
61527;SDS011;47395;42.032;-8.634;2023-08-21T10:05:47;1.15;;;1.15;;
61527;SDS011;47395;42.032;-8.634;2023-08-21T10:07:49;1.00;;;1.00;;
61527;SDS011;47395;42.032;-8.634;2023-08-21T10:09:51;1.02;;;1.02;;
61527;SDS011;47395;42.032;-8.634;2023-08-21T10:11:52;0.80;;;0.80;;
61527;SDS011;47395;42.032;-8.634;2023-08-21T10:13:54;3.63;;;0.90;;
61527;SDS011;47395;42.032;-8.634;2023-08-21T10:15:57;2.58;;;0.90;;
61527;SDS011;47395;42.032;-8.634;2023-08-21T10:18:16;1.02;;;1.02;;
61527;SDS011;47395;42.032;-8.634;2023-08-21T10:20:21;1.30;;;1.00;;
61527;SDS011;47395;42.032;-8.634;2023-08-21T10:22:39;1.00;;;1.00;;
61527;SDS011;47395;42.032;-8.634;2023-08-21T10:24:43;1.00;;;1.00;;
61527;SDS011;47395;42.032;-8.634;2023-08-21T10:26:47;1.05;;;1.05;;
61527;SDS011;47395;42.032;-8.634;2023-08-21T10:30:50;0.90;;;0.90;;
61527;SDS011;47395;42.032;-8.634;2023-08-21T10:32:53;0.90;;;0.90;;
61527;SDS011;47395;42.032;-8.634;2023-08-21T10:34:54;0.88;;;0.80;;
61527;SDS011;47395;42.032;-8.634;2023-08-21T10:37:05;1.10;;;1.10;;
61527;SDS011;47395;42.032;-8.634;2023-08-21T10:39:20;0.90;;;0.90;;
61527;SDS011;47395;42.032;-8.634;2023-08-21T10:41:26;0.88;;;0.88;;
61527;SDS011;47395;42.032;-8.634;2023-08-21T10:43:43;2.90;;;1.20;;
61527;SDS011;47395;42.032;-8.634;2023-08-21T10:45:55;1.88;;;0.82;;
61527;SDS011;47395;42.032;-8.634;2023-08-21T10:47:59;1.00;;;1.00;;
61527;SDS011;47395;42.032;-8.634;2023-08-21T10:50:02;1.10;;;1.00;;
61527;SDS011;47395;42.032;-8.634;2023-08-21T10:52:04;0.88;;;0.88;;
61527;SDS011;47395;42.032;-8.634;2023-08-21T10:54:15;0.80;;;0.80;;
61527;SDS011;47395;42.032;-8.634;2023-08-21T10:56:16;0.70;;;0.70;;
61527;SDS011;47395;42.032;-8.634;2023-08-21T10:58:17;0.90;;;0.90;;
61527;SDS011;47395;42.032;-8.634;2023-08-21T11:00:18;0.90;;;0.90;;
61527;SDS011;47395;42.032;-8.634;2023-08-21T11:02:22;1.48;;;1.17;;
61527;SDS011;47395;42.032;-8.634;2023-08-21T11:04:25;1.10;;;1.05;;
61527;SDS011;47395;42.032;-8.634;2023-08-21T11:06:26;4.85;;;1.10;;
61527;SDS011;47395;42.032;-8.634;2023-08-21T11:08:27;1.38;;;0.93;;
61527;SDS011;47395;42.032;-8.634;2023-08-21T11:10:30;1.85;;;1.05;;
61527;SDS011;47395;42.032;-8.634;2023-08-21T11:12:31;1.10;;;1.08;;
61527;SDS011;47395;42.032;-8.634;2023-08-21T11:14:32;1.48;;;1.00;;
61527;SDS011;47395;42.032;-8.634;2023-08-21T11:16:33;1.10;;;1.10;;
61527;SDS011;47395;42.032;-8.634;2023-08-21T11:18:38;1.00;;;1.00;;
61527;SDS011;47395;42.032;-8.634;2023-08-21T11:20:39;1.67;;;1.00;;
61527;SDS011;47395;42.032;-8.634;2023-08-21T11:22:40;0.90;;;0.90;;
61527;SDS011;47395;42.032;-8.634;2023-08-21T11:24:45;1.00;;;1.00;;
61527;SDS011;47395;42.032;-8.634;2023-08-21T11:26:51;0.80;;;0.80;;
61527;SDS011;47395;42.032;-8.634;2023-08-21T11:28:52;0.80;;;0.80;;
61527;SDS011;47395;42.032;-8.634;2023-08-21T11:30:54;1.90;;;1.00;;
61527;SDS011;47395;42.032;-8.634;2023-08-21T11:33:08;2.38;;;0.80;;
61527;SDS011;47395;42.032;-8.634;2023-08-21T11:35:10;0.82;;;0.82;;
61527;SDS011;47395;42.032;-8.634;2023-08-21T11:37:11;0.70;;;0.70;;
61527;SDS011;47395;42.032;-8.634;2023-08-21T11:39:12;0.95;;;0.90;;
61527;SDS011;47395;42.032;-8.634;2023-08-21T11:41:13;1.05;;;0.93;;
61527;SDS011;47395;42.032;-8.634;2023-08-21T11:43:14;2.53;;;1.20;;
61527;SDS011;47395;42.032;-8.634;2023-08-21T11:45:15;1.48;;;0.95;;
61527;SDS011;47395;42.032;-8.634;2023-08-21T11:47:19;0.80;;;0.80;;
61527;SDS011;47395;42.032;-8.634;2023-08-21T11:49:21;0.88;;;0.88;;
61527;SDS011;47395;42.032;-8.634;2023-08-21T11:51:23;1.17;;;0.82;;
61527;SDS011;47395;42.032;-8.634;2023-08-21T11:53:57;1.13;;;0.90;;
61527;SDS011;47395;42.032;-8.634;2023-08-21T11:55:53;0.98;;;0.98;;
61527;SDS011;47395;42.032;-8.634;2023-08-21T11:57:54;0.80;;;0.80;;
61527;SDS011;47395;42.032;-8.634;2023-08-21T11:59:56;0.77;;;0.77;;
61527;SDS011;47395;42.032;-8.634;2023-08-21T12:01:57;0.75;;;0.75;;
61527;SDS011;47395;42.032;-8.634;2023-08-21T12:03:58;0.80;;;0.80;;
61527;SDS011;47395;42.032;-8.634;2023-08-21T12:05:59;1.10;;;0.88;;
61527;SDS011;47395;42.032;-8.634;2023-08-21T12:08:05;1.48;;;0.90;;
61527;SDS011;47395;42.032;-8.634;2023-08-21T12:10:07;0.93;;;0.93;;
61527;SDS011;47395;42.032;-8.634;2023-08-21T12:12:09;0.70;;;0.70;;
61527;SDS011;47395;42.032;-8.634;2023-08-21T12:14:09;0.68;;;0.68;;
61527;SDS011;47395;42.032;-8.634;2023-08-21T12:16:10;0.70;;;0.60;;
61527;SDS011;47395;42.032;-8.634;2023-08-21T12:18:11;0.80;;;0.80;;